L M Clayton Airport Wolf Point US
ICAO: KOLF
IATA: OLF
Category: Medium
Scheduled Services: No

Elevation: 1986 ft
TransAlt. 18000 ft.

Airport Communications:
ASOS:118.325
SALT LAKE CITY CNTR:126.85
GREAT FALLS RDO:122.45
CTAF/UNICOM:122.8

KOLF Zoom In..

If you have problems with the map follow the link
https://www.worldairports.se/pages/airport.php?
ICAO=KOLF

Runways:

(A) RW 11 length 5091 ft width 100 ft
---- / hdg 109

(B) RW 29 length 5091 ft width 100 ft
---- / hdg 289

Location; KOLF
Day. 12 / Time. 10.53 Zulu
* Altimeter: 29.99
* Temperature: -17° c. -1.4°f.
* Wind from: 030° Speed 04 kn.
Dewpoint: -19° c.
Visibility: 4 Statute Miles.
Clouds: Overcast 800 ft.
Conditions: Haze.

KOLF 121053Z AUTO 03004KT 4SM HZ OVC008 M17/M19 A2999 RMK AO2 SLP203 T11671194


Wind From 030°
Speed 04 kn.

 
 
jpsmedia worldairports.se 2019   terms of use